Time;durP1;ratioP1;P1;durP2;ratioP2;P2;SDS_P1;SDS_P2;PMS_P1;PMS_P2;Temp;Humidity;BMP_temperature;BMP_pressure;BME280_temperature;BME280_humidity;BME280_pressure;Samples;Min_cycle;Max_cycle;Signal;HPM_P1;HPM_P2
2021/07/15 00:01:52;;;;;;;22.60;20.08;;;19.80;97.60;;;;;;5036089;28;20029;-81
2021/07/15 00:04:18;;;;;;;23.60;20.58;;;19.80;97.50;;;;;;5036540;28;20037;-80
2021/07/15 00:06:44;;;;;;;20.98;18.77;;;19.80;97.50;;;;;;5036070;28;20492;-81
2021/07/15 00:09:13;;;;;;;21.65;18.83;;;19.80;97.50;;;;;;5052707;28;20028;-80
2021/07/15 00:11:44;;;;;;;21.60;18.33;;;19.80;97.50;;;;;;5053940;28;20031;-81
2021/07/15 00:14:10;;;;;;;20.98;17.85;;;19.80;97.50;;;;;;5053957;28;20029;-82
2021/07/15 00:16:37;;;;;;;24.10;18.73;;;19.70;97.50;;;;;;5053700;28;20036;-80
2021/07/15 00:19:03;;;;;;;21.38;18.33;;;19.80;97.50;;;;;;5052575;28;20029;-78
2021/07/15 00:21:30;;;;;;;22.35;18.35;;;19.70;97.50;;;;;;5035748;28;20033;-80
2021/07/15 00:23:55;;;;;;;23.23;17.42;;;19.70;97.50;;;;;;5053679;28;20473;-81
2021/07/15 00:26:23;;;;;;;20.13;17.88;;;19.70;97.50;;;;;;5053526;28;20032;-80
2021/07/15 00:28:49;;;;;;;24.65;19.77;;;19.70;97.50;;;;;;5052509;28;20411;-79
2021/07/15 00:31:15;;;;;;;28.15;20.52;;;19.70;97.50;;;;;;5053964;28;20078;-78
2021/07/15 00:33:41;;;;;;;26.15;21.08;;;19.70;97.50;;;;;;5052245;28;20437;-80
2021/07/15 00:36:07;;;;;;;27.80;22.55;;;19.70;97.50;;;;;;5053453;28;20092;-81
2021/07/15 00:38:34;;;;;;;27.85;20.67;;;19.70;97.60;;;;;;5053279;28;20044;-79
2021/07/15 00:41:00;;;;;;;25.65;21.35;;;19.60;97.50;;;;;;5053144;28;20075;-78
2021/07/15 00:43:25;;;;;;;26.92;20.88;;;19.60;97.60;;;;;;5053247;28;20037;-79
2021/07/15 00:45:51;;;;;;;27.23;21.55;;;19.60;97.60;;;;;;5053730;28;20021;-78
2021/07/15 00:48:17;;;;;;;27.02;22.17;;;19.60;97.60;;;;;;5052031;28;20350;-78
2021/07/15 00:50:43;;;;;;;28.42;23.23;;;19.60;97.70;;;;;;5052134;28;20056;-79
2021/07/15 00:53:09;;;;;;;26.50;21.20;;;19.50;97.70;;;;;;5053276;28;20029;-80
2021/07/15 00:55:42;;;;;;;28.45;22.20;;;19.50;97.70;;;;;;5052269;28;20036;-79
2021/07/15 00:58:10;;;;;;;29.40;22.88;;;19.50;97.70;;;;;;5035391;28;20063;-81
2021/07/15 01:00:37;;;;;;;31.65;24.88;;;19.50;97.70;;;;;;5051997;28;20021;-80
2021/07/15 01:03:04;;;;;;;32.75;24.95;;;19.50;97.70;;;;;;5053106;28;20029;-80
2021/07/15 01:05:39;;;;;;;29.92;24.98;;;19.50;97.70;;;;;;5052273;28;20378;-80
2021/07/15 01:08:05;;;;;;;32.33;25.13;;;19.50;97.70;;;;;;5051884;28;20108;-80
2021/07/15 01:10:40;;;;;;;32.83;26.88;;;19.50;97.70;;;;;;5035325;28;20107;-81
2021/07/15 01:13:05;;;;;;;32.97;26.73;;;19.50;97.70;;;;;;5051773;28;20446;-80
2021/07/15 01:16:11;;;;;;;34.00;27.55;;;19.50;97.70;;;;;;5051844;28;20108;-79
2021/07/15 01:18:48;;;;;;;32.38;26.33;;;19.50;97.70;;;;;;5051114;28;20075;-80
2021/07/15 01:21:51;;;;;;;29.70;21.98;;;19.50;97.70;;;;;;5052952;28;20021;-78
2021/07/15 01:24:31;;;;;;;27.00;20.35;;;19.50;98.00;;;;;;5052909;28;20025;-79
2021/07/15 01:27:21;;;;;;;26.33;21.15;;;19.50;97.70;;;;;;5052910;28;20025;-80
2021/07/15 01:30:12;;;;;;;28.98;20.38;;;19.50;97.70;;;;;;5052925;28;20561;-79
2021/07/15 01:32:50;;;;;;;22.52;18.50;;;19.50;97.70;;;;;;5051576;28;20029;-81
2021/07/15 01:35:18;;;;;;;24.95;19.40;;;19.50;97.80;;;;;;5053138;28;20033;-80
2021/07/15 01:37:50;;;;;;;23.33;18.70;;;19.40;97.80;;;;;;5053244;28;20491;-78
2021/07/15 01:40:26;;;;;;;23.17;18.20;;;19.50;97.80;;;;;;5053166;28;20036;-80
2021/07/15 01:42:58;;;;;;;25.63;20.08;;;19.40;97.70;;;;;;5052824;28;20033;-79
2021/07/15 01:45:25;;;;;;;23.48;19.58;;;19.40;97.70;;;;;;5051678;28;20035;-79
2021/07/15 01:47:52;;;;;;;25.63;20.13;;;19.40;97.70;;;;;;5051978;28;20477;-80
2021/07/15 01:50:18;;;;;;;24.58;18.77;;;19.40;97.70;;;;;;5051202;28;20044;-73
2021/07/15 01:52:44;;;;;;;21.70;18.77;;;19.30;97.80;;;;;;5052809;28;20033;-74
2021/07/15 01:55:12;;;;;;;24.40;18.70;;;19.30;97.80;;;;;;5038520;28;20124;-72
2021/07/15 01:57:41;;;;;;;25.80;19.98;;;19.30;97.80;;;;;;5056153;28;20021;-74
2021/07/15 02:00:08;;;;;;;29.40;22.30;;;19.30;97.80;;;;;;5056540;28;20029;-74
2021/07/15 02:02:35;;;;;;;29.10;21.75;;;19.20;97.90;;;;;;5055460;28;20025;-74
2021/07/15 02:05:01;;;;;;;35.03;23.55;;;19.20;98.20;;;;;;5056004;28;20040;-75
2021/07/15 02:07:27;;;;;;;32.13;23.98;;;19.20;97.90;;;;;;5055021;28;20037;-74
2021/07/15 02:09:55;;;;;;;32.67;23.92;;;19.20;98.00;;;;;;5054734;28;20025;-74
2021/07/15 02:12:22;;;;;;;33.25;23.75;;;19.20;98.00;;;;;;5055905;28;20554;-74
2021/07/15 02:14:52;;;;;;;33.58;23.48;;;19.20;98.00;;;;;;5037865;28;20075;-74
2021/07/15 02:17:19;;;;;;;30.73;22.00;;;19.10;98.00;;;;;;5054754;28;20029;-74
2021/07/15 02:19:46;;;;;;;28.92;21.17;;;19.20;98.00;;;;;;5055955;28;20108;-74
2021/07/15 02:22:13;;;;;;;31.38;22.17;;;19.20;98.00;;;;;;5038070;28;20083;-74
2021/07/15 02:24:40;;;;;;;31.30;22.58;;;19.20;98.10;;;;;;5054732;28;20111;-74
2021/07/15 02:27:06;;;;;;;29.70;22.02;;;19.20;98.00;;;;;;5056115;28;20059;-74
2021/07/15 02:29:33;;;;;;;31.75;22.25;;;19.20;98.30;;;;;;5054484;28;20027;-75
2021/07/15 02:32:06;;;;;;;32.17;22.48;;;19.20;98.00;;;;;;5054638;28;20024;-74
2021/07/15 02:34:50;;;;;;;28.67;21.05;;;19.20;98.00;;;;;;5054419;28;20476;-74
2021/07/15 02:37:18;;;;;;;29.65;21.48;;;19.20;98.00;;;;;;5054402;28;20048;-74
2021/07/15 02:39:44;;;;;;;30.25;23.02;;;19.20;98.00;;;;;;5054498;28;20025;-75
2021/07/15 02:42:10;;;;;;;30.80;22.02;;;19.10;97.90;;;;;;5054331;28;20036;-75
2021/07/15 02:44:37;;;;;;;30.25;22.00;;;19.20;97.90;;;;;;5055450;28;20033;-74
2021/07/15 02:47:03;;;;;;;30.88;21.20;;;19.20;98.00;;;;;;5054449;28;20318;-74
2021/07/15 02:49:29;;;;;;;29.50;20.75;;;19.20;97.90;;;;;;5053891;28;20090;-73
2021/07/15 02:51:54;;;;;;;27.50;20.23;;;19.20;97.90;;;;;;5055409;28;20083;-75
2021/07/15 02:54:20;;;;;;;22.13;17.98;;;19.10;97.90;;;;;;5038210;28;20036;-75
2021/07/15 02:56:53;;;;;;;30.60;21.98;;;19.20;97.90;;;;;;5037418;28;20473;-74
2021/07/15 02:59:24;;;;;;;24.73;18.77;;;19.10;97.90;;;;;;5055087;28;20024;-73
2021/07/15 03:01:57;;;;;;;24.67;18.02;;;19.20;97.90;;;;;;5055186;28;20057;-75
2021/07/15 03:04:25;;;;;;;25.50;18.08;;;19.20;97.90;;;;;;5055121;28;20040;-73
2021/07/15 03:06:52;;;;;;;22.23;17.17;;;19.20;97.90;;;;;;5053985;28;20031;-72
2021/07/15 03:09:26;;;;;;;23.60;17.55;;;19.20;97.80;;;;;;5053926;28;20465;-74
2021/07/15 03:12:00;;;;;;;23.83;17.10;;;19.20;97.80;;;;;;5054073;28;20104;-74
2021/07/15 03:14:37;;;;;;;20.88;14.45;;;19.10;97.80;;;;;;5055116;28;20043;-73
2021/07/15 03:17:05;;;;;;;18.95;14.30;;;19.10;97.80;;;;;;5054226;28;20032;-74
2021/07/15 03:19:33;;;;;;;17.00;13.23;;;19.10;97.80;;;;;;5053834;28;20496;-74
2021/07/15 03:22:02;;;;;;;17.55;13.00;;;19.10;97.70;;;;;;5053817;28;20060;-73
2021/07/15 03:24:31;;;;;;;18.85;14.00;;;19.10;97.70;;;;;;5053598;28;20048;-73
2021/07/15 03:26:58;;;;;;;18.15;13.18;;;19.10;97.80;;;;;;5053754;28;20028;-74
2021/07/15 03:29:25;;;;;;;15.25;11.57;;;19.10;97.70;;;;;;5037164;28;20036;-73
2021/07/15 03:31:54;;;;;;;16.73;12.60;;;19.10;97.70;;;;;;5053725;28;20056;-72
2021/07/15 03:34:20;;;;;;;16.45;11.25;;;19.10;97.70;;;;;;5054823;28;20029;-72
2021/07/15 03:36:50;;;;;;;13.15;10.45;;;19.10;97.70;;;;;;5053112;28;20028;-74
2021/07/15 03:39:17;;;;;;;16.00;11.70;;;19.10;97.70;;;;;;5053415;28;20033;-74
2021/07/15 03:41:45;;;;;;;13.35;10.98;;;19.10;97.70;;;;;;5054486;28;20039;-74
2021/07/15 03:44:13;;;;;;;14.50;10.73;;;19.10;97.70;;;;;;5053355;28;20473;-73
2021/07/15 03:46:41;;;;;;;13.93;9.85;;;19.10;97.70;;;;;;5053318;28;20017;-73
2021/07/15 03:49:08;;;;;;;14.43;10.48;;;19.10;97.60;;;;;;5052459;28;20013;-72
2021/07/15 03:51:35;;;;;;;15.52;10.32;;;19.10;97.60;;;;;;5054317;28;20056;-73
2021/07/15 03:54:02;;;;;;;13.85;10.40;;;19.10;97.60;;;;;;5036465;28;20025;-73
2021/07/15 03:56:30;;;;;;;13.00;9.73;;;19.10;97.60;;;;;;5036333;28;20029;-72
2021/07/15 03:59:01;;;;;;;13.55;10.25;;;19.10;97.60;;;;;;5052996;28;20062;-72
2021/07/15 04:01:31;;;;;;;14.82;9.50;;;19.10;97.60;;;;;;5044075;28;20029;-72
2021/07/15 04:04:00;;;;;;;12.73;9.57;;;19.10;97.60;;;;;;5033415;28;20116;-73
2021/07/15 04:06:27;;;;;;;14.50;9.40;;;19.10;97.60;;;;;;5033288;28;20071;-72
2021/07/15 04:08:55;;;;;;;15.05;10.73;;;19.10;97.50;;;;;;5037281;28;20112;-73
2021/07/15 04:11:24;;;;;;;12.48;8.40;;;19.10;97.50;;;;;;5045039;28;20024;-71
2021/07/15 04:13:51;;;;;;;13.85;9.15;;;19.10;97.50;;;;;;5041775;28;20021;-73
2021/07/15 04:16:22;;;;;;;11.52;8.18;;;19.10;97.50;;;;;;5063433;28;20040;-73
2021/07/15 04:18:51;;;;;;;11.10;8.25;;;19.10;97.50;;;;;;5055403;28;20052;-73
2021/07/15 04:21:18;;;;;;;9.93;6.82;;;19.10;97.50;;;;;;5052477;28;20029;-72
2021/07/15 04:23:44;;;;;;;16.08;7.25;;;19.10;97.50;;;;;;5053789;28;20104;-72
2021/07/15 04:26:10;;;;;;;9.75;6.70;;;19.10;97.60;;;;;;5052535;28;20116;-75
2021/07/15 04:28:38;;;;;;;10.02;6.38;;;19.00;97.60;;;;;;5036217;28;20029;-73
2021/07/15 04:31:15;;;;;;;10.55;7.05;;;19.10;97.60;;;;;;5053881;28;20107;-72
2021/07/15 04:33:43;;;;;;;8.60;5.28;;;19.10;97.60;;;;;;5046061;28;20021;-72
2021/07/15 04:36:09;;;;;;;8.65;6.18;;;19.00;97.50;;;;;;5043575;28;20042;-73
2021/07/15 04:38:35;;;;;;;9.15;5.97;;;19.00;97.50;;;;;;5010230;28;20404;-72
2021/07/15 04:41:03;;;;;;;8.70;6.22;;;19.00;97.60;;;;;;5024918;28;20033;-73
2021/07/15 04:43:30;;;;;;;10.45;7.28;;;19.00;97.60;;;;;;5046284;28;20021;-73
2021/07/15 04:45:58;;;;;;;12.93;8.77;;;19.00;97.60;;;;;;5043919;28;20411;-72
2021/07/15 04:48:23;;;;;;;11.50;8.05;;;19.00;97.60;;;;;;5052461;28;20029;-72
2021/07/15 04:50:51;;;;;;;12.48;9.43;;;19.00;98.00;;;;;;5035785;28;20053;-73
2021/07/15 04:53:19;;;;;;;12.20;8.30;;;19.00;97.70;;;;;;5047846;28;20020;-73
2021/07/15 04:55:47;;;;;;;16.15;9.75;;;19.00;98.00;;;;;;5068783;28;20509;-73
2021/07/15 04:58:14;;;;;;;15.88;11.40;;;18.90;97.70;;;;;;5059674;28;20032;-72
2021/07/15 05:00:40;;;;;;;20.42;13.10;;;19.00;97.70;;;;;;5053904;28;20032;-73
2021/07/15 05:03:17;;;;;;;17.50;11.45;;;18.90;97.70;;;;;;5051507;28;20017;-74
2021/07/15 05:05:42;;;;;;;20.75;13.18;;;19.00;97.80;;;;;;5053127;28;20148;-73
2021/07/15 05:08:08;;;;;;;18.83;12.02;;;19.00;97.90;;;;;;5053455;28;20092;-73
2021/07/15 05:10:34;;;;;;;21.45;13.20;;;19.00;97.90;;;;;;5053166;28;20029;-73
2021/07/15 05:13:01;;;;;;;18.63;13.55;;;19.00;97.90;;;;;;5052875;28;20033;-72
2021/07/15 05:15:26;;;;;;;23.15;14.98;;;19.00;97.90;;;;;;5050484;28;20396;-72
2021/07/15 05:17:52;;;;;;;24.23;16.00;;;19.00;97.90;;;;;;5051015;28;20029;-74
2021/07/15 05:20:18;;;;;;;24.90;15.18;;;19.00;97.90;;;;;;5035385;28;20054;-73
2021/07/15 05:22:43;;;;;;;29.17;17.35;;;19.00;97.90;;;;;;5051476;28;20036;-73
2021/07/15 05:25:09;;;;;;;24.60;16.10;;;18.90;97.90;;;;;;5053036;28;20040;-73
2021/07/15 05:27:35;;;;;;;22.85;16.58;;;18.90;97.90;;;;;;5041350;28;20026;-72
2021/07/15 05:30:02;;;;;;;30.77;16.73;;;18.90;97.90;;;;;;5036652;28;20128;-74
2021/07/15 05:32:27;;;;;;;32.30;16.77;;;19.00;98.00;;;;;;5022200;28;20021;-73
2021/07/15 05:34:53;;;;;;;29.85;16.73;;;19.00;98.00;;;;;;5040794;28;20087;-74
2021/07/15 05:37:18;;;;;;;30.13;19.13;;;18.90;97.90;;;;;;5036564;28;20029;-73
2021/07/15 05:39:44;;;;;;;27.33;18.30;;;19.00;97.90;;;;;;5035333;28;20041;-73
2021/07/15 05:42:11;;;;;;;29.45;18.05;;;19.00;98.00;;;;;;5051330;28;20094;-73
2021/07/15 05:44:37;;;;;;;27.52;18.88;;;19.00;98.00;;;;;;5046540;28;20017;-71
2021/07/15 05:47:03;;;;;;;31.27;18.77;;;19.00;98.00;;;;;;5068770;28;20531;-71
2021/07/15 05:49:29;;;;;;;31.27;19.67;;;19.00;98.00;;;;;;5063312;28;20045;-71
2021/07/15 05:51:54;;;;;;;38.70;22.52;;;19.00;98.00;;;;;;5072865;28;20048;-73
2021/07/15 05:54:20;;;;;;;35.97;23.58;;;19.00;98.00;;;;;;5069055;28;20025;-74
2021/07/15 05:56:46;;;;;;;32.67;21.80;;;19.00;98.00;;;;;;5054953;28;20040;-72
2021/07/15 05:59:11;;;;;;;37.47;22.50;;;19.00;98.00;;;;;;5055069;28;20033;-72
2021/07/15 06:01:37;;;;;;;34.58;22.90;;;18.90;98.00;;;;;;5055433;28;20032;-73
2021/07/15 06:04:03;;;;;;;37.50;21.92;;;18.90;98.00;;;;;;5072784;28;20047;-72
2021/07/15 06:06:28;;;;;;;36.35;24.23;;;18.90;98.00;;;;;;5057995;28;20029;-72
2021/07/15 06:08:54;;;;;;;37.00;22.35;;;18.90;98.00;;;;;;5075206;28;20029;-72
2021/07/15 06:11:20;;;;;;;36.42;23.70;;;18.90;98.00;;;;;;5050303;28;20029;-75
2021/07/15 06:13:46;;;;;;;33.97;21.58;;;18.90;98.00;;;;;;5054347;28;20040;-73
2021/07/15 06:16:12;;;;;;;35.45;23.02;;;19.00;98.00;;;;;;5037895;28;20033;-72
2021/07/15 06:18:37;;;;;;;39.22;24.15;;;19.00;98.00;;;;;;5053886;28;20033;-72
2021/07/15 06:21:04;;;;;;;39.40;24.42;;;19.00;98.00;;;;;;5055269;28;20029;-72
2021/07/15 06:23:32;;;;;;;36.70;22.77;;;18.90;98.00;;;;;;5057930;28;20381;-74
2021/07/15 06:25:59;;;;;;;41.33;23.80;;;18.90;98.00;;;;;;5061082;28;20025;-73
2021/07/15 06:28:25;;;;;;;39.55;23.02;;;19.00;98.00;;;;;;5060037;28;20445;-72
2021/07/15 06:30:51;;;;;;;33.38;21.73;;;19.00;98.00;;;;;;5061714;28;20020;-73
2021/07/15 06:33:17;;;;;;;35.20;20.42;;;19.00;98.00;;;;;;5056762;28;20025;-72
2021/07/15 06:35:45;;;;;;;34.75;19.80;;;19.00;98.00;;;;;;5058501;28;20419;-72
2021/07/15 06:38:11;;;;;;;27.50;17.75;;;19.00;98.00;;;;;;5073670;28;20120;-72
2021/07/15 06:40:37;;;;;;;21.02;14.02;;;19.10;98.10;;;;;;5071885;28;20107;-73
2021/07/15 06:43:03;;;;;;;20.95;15.10;;;19.10;98.00;;;;;;5057365;28;20024;-73
2021/07/15 06:45:28;;;;;;;20.23;12.23;;;19.10;98.00;;;;;;5074207;28;20403;-73
2021/07/15 06:47:54;;;;;;;15.40;10.60;;;19.10;97.90;;;;;;5074230;28;20028;-72
2021/07/15 06:50:19;;;;;;;14.55;9.65;;;19.10;97.90;;;;;;5073461;28;20040;-75
2021/07/15 06:52:45;;;;;;;13.35;8.30;;;19.10;97.90;;;;;;5059867;28;20484;-74
2021/07/15 06:55:12;;;;;;;10.20;6.75;;;19.10;97.80;;;;;;5054907;28;20098;-74
2021/07/15 06:57:38;;;;;;;10.65;8.10;;;19.10;97.90;;;;;;5054537;28;20037;-74
2021/07/15 07:00:09;;;;;;;9.93;6.88;;;19.10;98.10;;;;;;5054891;28;20033;-74
2021/07/15 07:02:40;;;;;;;10.75;8.07;;;19.10;97.90;;;;;;5053470;28;20028;-74
2021/07/15 07:05:06;;;;;;;12.32;8.27;;;19.10;97.80;;;;;;5053693;28;20025;-73
2021/07/15 07:07:32;;;;;;;10.68;8.13;;;19.20;97.80;;;;;;5054948;28;20045;-75
2021/07/15 07:09:58;;;;;;;13.00;9.40;;;19.20;97.70;;;;;;5054924;28;20110;-74
2021/07/15 07:12:24;;;;;;;11.35;9.00;;;19.20;97.60;;;;;;5054769;28;20025;-74
2021/07/15 07:14:49;;;;;;;10.07;8.32;;;19.20;97.60;;;;;;5037091;28;20484;-74
2021/07/15 07:17:15;;;;;;;11.40;8.13;;;19.20;97.60;;;;;;5056292;28;20054;-73
2021/07/15 07:19:40;;;;;;;12.80;9.20;;;19.20;97.60;;;;;;5022262;28;20038;-73
2021/07/15 07:22:06;;;;;;;13.98;8.57;;;19.30;97.60;;;;;;5033552;28;20045;-73
2021/07/15 07:24:31;;;;;;;14.60;9.60;;;19.30;97.50;;;;;;5034602;28;20113;-73
2021/07/15 07:26:57;;;;;;;16.27;9.40;;;19.30;97.50;;;;;;5031752;28;20021;-73
2021/07/15 07:29:23;;;;;;;14.48;10.18;;;19.30;97.40;;;;;;5034862;28;20493;-73
2021/07/15 07:31:48;;;;;;;16.25;10.48;;;19.30;97.40;;;;;;5049591;28;20101;-72
2021/07/15 07:34:14;;;;;;;19.15;10.88;;;19.30;97.30;;;;;;5034488;28;20033;-72
2021/07/15 07:36:40;;;;;;;19.30;12.75;;;19.30;97.20;;;;;;5035161;28;20029;-73
2021/07/15 07:39:06;;;;;;;23.55;12.93;;;19.30;97.20;;;;;;5033362;28;20034;-72
2021/07/15 07:41:32;;;;;;;19.60;12.40;;;19.30;97.10;;;;;;5017225;28;20030;-71
2021/07/15 07:43:58;;;;;;;19.10;11.88;;;19.20;97.10;;;;;;5051231;28;20033;-72
2021/07/15 07:46:25;;;;;;;22.33;13.00;;;19.30;97.20;;;;;;5060986;28;20045;-73
2021/07/15 07:48:51;;;;;;;22.48;12.88;;;19.30;97.20;;;;;;5063684;28;20075;-72
2021/07/15 07:51:16;;;;;;;23.15;13.05;;;19.30;97.10;;;;;;5060620;28;20036;-72
2021/07/15 07:53:44;;;;;;;25.65;15.10;;;19.30;97.10;;;;;;5059831;28;20378;-72
2021/07/15 07:56:10;;;;;;;23.35;14.48;;;19.30;97.10;;;;;;5037080;28;20025;-71
2021/07/15 07:58:35;;;;;;;20.48;13.05;;;19.30;97.10;;;;;;5053321;28;20551;-70
2021/07/15 08:01:01;;;;;;;21.65;14.15;;;19.30;97.10;;;;;;5053376;28;20035;-72
2021/07/15 08:03:27;;;;;;;18.50;11.57;;;19.20;97.10;;;;;;5053430;28;20511;-73
2021/07/15 08:05:53;;;;;;;18.35;12.23;;;19.30;97.20;;;;;;5052661;28;20041;-72
2021/07/15 08:08:19;;;;;;;16.92;9.73;;;19.30;97.10;;;;;;5052879;28;20056;-72
2021/07/15 08:10:45;;;;;;;14.98;9.63;;;19.30;97.10;;;;;;5052546;28;20043;-72
2021/07/15 08:13:11;;;;;;;15.18;9.40;;;19.40;97.00;;;;;;5052683;28;20503;-72
2021/07/15 08:15:37;;;;;;;11.88;7.88;;;19.40;97.10;;;;;;5054029;28;20109;-73
2021/07/15 08:18:03;;;;;;;11.85;8.07;;;19.40;97.00;;;;;;5035962;28;20559;-73
2021/07/15 08:20:29;;;;;;;11.27;7.97;;;19.40;96.90;;;;;;5052425;28;20159;-73
2021/07/15 08:22:55;;;;;;;13.35;7.30;;;19.50;96.80;;;;;;5036176;28;20107;-73
2021/07/15 08:25:22;;;;;;;12.68;6.78;;;19.40;96.80;;;;;;5052398;28;20029;-73
2021/07/15 08:27:48;;;;;;;14.70;8.05;;;19.40;96.70;;;;;;5036113;28;20480;-72
2021/07/15 08:30:15;;;;;;;12.18;7.05;;;19.40;96.60;;;;;;5035788;28;20052;-72
2021/07/15 08:32:41;;;;;;;14.07;8.07;;;19.30;96.60;;;;;;5052385;28;20480;-73
2021/07/15 08:35:07;;;;;;;14.85;8.35;;;19.40;96.60;;;;;;5053708;28;20083;-74
2021/07/15 08:37:34;;;;;;;13.73;8.65;;;19.40;96.60;;;;;;5051982;28;20123;-73
2021/07/15 08:40:01;;;;;;;13.13;8.55;;;19.40;96.60;;;;;;5051860;28;20036;-72
2021/07/15 08:42:27;;;;;;;14.15;8.52;;;19.50;96.60;;;;;;5053180;28;20052;-72
2021/07/15 08:44:57;;;;;;;19.70;9.90;;;19.40;96.60;;;;;;5053395;28;20055;-72
2021/07/15 08:47:23;;;;;;;19.58;10.18;;;19.50;96.50;;;;;;5052380;28;20033;-73
2021/07/15 08:49:49;;;;;;;19.92;11.43;;;19.50;96.50;;;;;;5035580;28;20087;-72
2021/07/15 08:52:16;;;;;;;18.45;11.65;;;19.50;96.40;;;;;;5035886;28;20033;-74
2021/07/15 08:57:15;;;;;;;22.38;11.23;;;19.40;96.40;;;;;;5053764;28;20033;-73
2021/07/15 08:59:41;;;;;;;20.27;12.20;;;19.40;96.40;;;;;;5053278;28;20029;-73
2021/07/15 09:02:11;;;;;;;22.67;12.23;;;19.40;96.40;;;;;;5053174;28;20080;-73
2021/07/15 09:04:37;;;;;;;27.50;14.25;;;19.40;96.40;;;;;;5057864;28;20037;-72
2021/07/15 09:07:03;;;;;;;22.63;12.55;;;19.40;96.40;;;;;;5056455;28;20113;-73
2021/07/15 09:09:28;;;;;;;27.08;13.85;;;19.40;96.30;;;;;;5039700;28;20025;-74
2021/07/15 09:11:54;;;;;;;33.35;13.23;;;19.30;96.30;;;;;;5055971;28;20468;-72
2021/07/15 09:14:23;;;;;;;22.05;13.55;;;19.30;96.30;;;;;;5056133;28;20496;-74
2021/07/15 09:16:51;;;;;;;25.00;13.32;;;19.30;96.30;;;;;;5055952;28;20495;-72
2021/07/15 09:19:18;;;;;;;27.63;13.45;;;19.30;96.30;;;;;;5057391;28;20029;-75
2021/07/15 09:21:44;;;;;;;27.35;12.98;;;19.30;96.40;;;;;;5039467;28;20033;-74
2021/07/15 09:24:34;;;;;;;27.23;13.90;;;19.20;96.30;;;;;;5055752;28;20491;-74
2021/07/15 09:27:13;;;;;;;26.83;13.48;;;19.20;96.40;;;;;;5050323;28;20041;-72
2021/07/15 09:29:39;;;;;;;21.20;12.25;;;19.20;96.40;;;;;;5066445;28;20024;-75
2021/07/15 09:32:05;;;;;;;17.33;11.95;;;19.20;96.40;;;;;;5075185;28;20048;-72
2021/07/15 09:34:33;;;;;;;20.73;11.63;;;19.20;96.50;;;;;;5076569;28;20050;-73
2021/07/15 09:37:10;;;;;;;21.20;12.00;;;19.20;96.40;;;;;;5075221;28;20115;-73
2021/07/15 09:39:44;;;;;;;20.77;10.77;;;19.20;96.40;;;;;;5076494;28;20029;-73
2021/07/15 09:42:16;;;;;;;19.15;11.13;;;19.20;96.40;;;;;;5076648;28;20032;-73
2021/07/15 09:44:43;;;;;;;19.23;10.27;;;19.30;96.40;;;;;;5076443;28;20024;-73
2021/07/15 09:47:36;;;;;;;18.20;10.68;;;19.30;96.40;;;;;;5075264;28;20067;-73
2021/07/15 09:50:25;;;;;;;22.35;11.00;;;19.30;96.40;;;;;;5067509;28;20033;-73
2021/07/15 09:52:51;;;;;;;18.65;9.93;;;19.30;96.40;;;;;;5060908;28;20028;-73
2021/07/15 09:55:17;;;;;;;20.35;10.98;;;19.30;96.40;;;;;;5028428;28;20445;-72
2021/07/15 09:57:43;;;;;;;16.80;10.07;;;19.40;96.30;;;;;;5036838;28;20615;-74
2021/07/15 10:00:10;;;;;;;19.02;10.13;;;19.40;96.30;;;;;;5037508;28;20132;-74
2021/07/15 10:02:35;;;;;;;18.48;10.27;;;19.40;96.30;;;;;;5042976;28;20029;-73
2021/07/15 10:05:02;;;;;;;18.73;10.05;;;19.40;96.30;;;;;;5047565;28;20381;-74
2021/07/15 10:07:28;;;;;;;15.70;9.38;;;19.40;96.30;;;;;;5048822;28;20028;-73
2021/07/15 10:10:19;;;;;;;17.75;9.27;;;19.50;96.30;;;;;;5047371;28;20476;-73
2021/07/15 10:12:45;;;;;;;15.80;9.57;;;19.50;96.30;;;;;;5061481;28;20013;-72
2021/07/15 10:15:14;;;;;;;16.45;8.68;;;19.50;96.20;;;;;;5061012;28;20104;-73
2021/07/15 10:17:45;;;;;;;17.48;9.35;;;19.50;96.20;;;;;;5066913;28;20042;-73
2021/07/15 10:20:17;;;;;;;15.77;8.73;;;19.60;96.20;;;;;;5066704;28;20024;-72
2021/07/15 10:22:44;;;;;;;15.40;9.23;;;19.60;96.20;;;;;;5060746;28;20021;-74
2021/07/15 10:25:15;;;;;;;13.63;8.45;;;19.60;96.00;;;;;;5065103;28;20107;-72
2021/07/15 10:27:42;;;;;;;13.88;8.20;;;19.70;96.00;;;;;;5061753;28;20358;-73
2021/07/15 10:30:09;;;;;;;13.32;8.10;;;19.70;95.90;;;;;;5064323;28;20017;-73
2021/07/15 10:32:37;;;;;;;12.57;7.28;;;19.70;95.80;;;;;;5063239;28;20112;-72
2021/07/15 10:35:12;;;;;;;12.77;7.57;;;19.70;95.80;;;;;;5062818;28;20024;-73
2021/07/15 10:37:41;;;;;;;14.48;8.15;;;19.70;95.70;;;;;;5048889;28;20082;-72
2021/07/15 10:40:15;;;;;;;12.98;7.22;;;19.70;95.70;;;;;;5063503;28;20463;-74
2021/07/15 10:42:41;;;;;;;11.93;7.40;;;19.60;95.70;;;;;;5066138;28;20028;-74
2021/07/15 10:45:08;;;;;;;12.10;8.38;;;19.70;95.70;;;;;;5063394;28;20020;-73
2021/07/15 10:47:35;;;;;;;12.13;8.15;;;19.60;95.60;;;;;;5062912;28;20098;-72
2021/07/15 10:50:01;;;;;;;13.35;8.63;;;19.70;95.70;;;;;;5063484;28;20049;-72
2021/07/15 10:52:27;;;;;;;14.75;9.25;;;19.70;95.70;;;;;;5064520;28;20112;-72
2021/07/15 10:54:55;;;;;;;14.18;8.20;;;19.70;95.70;;;;;;5050929;28;20029;-72
2021/07/15 10:57:22;;;;;;;14.88;9.50;;;19.70;95.70;;;;;;5034480;28;20065;-72
2021/07/15 10:59:48;;;;;;;13.65;8.85;;;19.70;95.90;;;;;;5035515;28;20077;-74
2021/07/15 11:02:32;;;;;;;13.93;8.60;;;19.70;95.90;;;;;;5046073;28;20032;-73
2021/07/15 11:04:58;;;;;;;17.40;9.98;;;19.80;95.60;;;;;;5033806;28;20480;-73
2021/07/15 11:07:28;;;;;;;13.48;7.80;;;19.80;95.60;;;;;;5035461;28;20033;-73
2021/07/15 11:10:16;;;;;;;12.50;7.53;;;19.80;95.60;;;;;;5034229;28;20441;-72
2021/07/15 11:12:53;;;;;;;11.60;7.18;;;19.80;95.40;;;;;;5034893;28;20028;-73
2021/07/15 11:15:19;;;;;;;9.43;6.18;;;19.90;95.40;;;;;;5034949;28;20032;-73
2021/07/15 11:17:47;;;;;;;10.65;5.70;;;19.90;95.50;;;;;;5017519;28;20033;-72
2021/07/15 11:20:26;;;;;;;11.65;6.28;;;20.00;95.40;;;;;;5034925;28;20388;-72
2021/07/15 11:22:51;;;;;;;8.02;5.75;;;20.10;95.30;;;;;;5062990;28;20031;-73
2021/07/15 11:25:41;;;;;;;11.52;6.53;;;20.00;95.20;;;;;;5064439;28;20028;-72
2021/07/15 11:28:10;;;;;;;10.88;6.57;;;20.10;95.20;;;;;;5062891;28;20041;-69
2021/07/15 11:30:35;;;;;;;9.40;6.13;;;20.10;95.20;;;;;;5063113;28;20401;-70
2021/07/15 11:33:26;;;;;;;11.45;7.00;;;20.10;95.10;;;;;;5063421;28;20021;-70
2021/07/15 11:36:00;;;;;;;14.13;8.20;;;20.10;95.10;;;;;;5062406;28;20037;-70
2021/07/15 11:38:29;;;;;;;12.60;7.80;;;20.00;95.00;;;;;;5062243;28;20107;-69
2021/07/15 11:41:09;;;;;;;14.98;9.25;;;20.00;94.90;;;;;;5057340;28;20025;-70
2021/07/15 11:43:50;;;;;;;16.65;8.93;;;19.90;94.90;;;;;;5054512;28;20099;-71
2021/07/15 11:46:38;;;;;;;17.95;9.95;;;20.00;94.90;;;;;;5059059;28;20024;-70
2021/07/15 11:49:25;;;;;;;18.80;11.10;;;20.00;94.80;;;;;;5074388;28;20043;-73
2021/07/15 11:51:58;;;;;;;15.45;9.27;;;20.00;94.80;;;;;;5056220;28;20388;-72
2021/07/15 11:54:44;;;;;;;17.73;9.40;;;20.00;94.70;;;;;;5073404;28;20082;-73
2021/07/15 11:57:12;;;;;;;11.85;7.88;;;19.90;94.70;;;;;;5074339;28;20472;-73
2021/07/15 11:59:46;;;;;;;11.00;6.82;;;19.90;94.70;;;;;;5073096;28;20514;-72
2021/07/15 12:02:40;;;;;;;14.18;7.30;;;20.00;94.80;;;;;;5074455;28;20025;-72
2021/07/15 12:05:28;;;;;;;12.35;8.27;;;20.00;94.80;;;;;;5072654;28;20610;-73
2021/07/15 12:08:15;;;;;;;14.18;7.20;;;20.10;94.80;;;;;;5073771;28;20032;-72
2021/07/15 12:10:52;;;;;;;9.63;7.05;;;20.10;95.00;;;;;;5073859;28;20048;-73
2021/07/15 12:13:19;;;;;;;16.92;9.35;;;20.10;94.80;;;;;;5072490;28;20020;-73
2021/07/15 12:15:50;;;;;;;12.57;7.85;;;20.10;94.70;;;;;;5072758;28;20384;-72
2021/07/15 12:18:18;;;;;;;15.45;9.25;;;20.10;94.70;;;;;;5074293;28;20016;-73
2021/07/15 12:20:52;;;;;;;13.93;9.60;;;20.10;94.70;;;;;;5073404;28;20029;-72
2021/07/15 12:23:20;;;;;;;19.73;8.98;;;20.10;94.40;;;;;;5073926;28;20013;-72
2021/07/15 12:25:51;;;;;;;16.13;8.27;;;20.10;94.40;;;;;;5073442;28;20036;-74
2021/07/15 12:28:20;;;;;;;13.00;9.23;;;20.20;94.50;;;;;;5073468;28;20024;-72
2021/07/15 12:30:51;;;;;;;16.75;9.82;;;20.20;94.50;;;;;;5073683;28;20028;-73
2021/07/15 12:33:20;;;;;;;14.48;8.93;;;20.30;94.50;;;;;;5072136;28;20103;-73
2021/07/15 12:35:47;;;;;;;15.63;8.73;;;20.30;94.50;;;;;;5072145;28;20099;-71
2021/07/15 12:38:30;;;;;;;15.13;9.93;;;20.40;94.40;;;;;;5073255;28;20107;-72
2021/07/15 12:41:22;;;;;;;19.00;9.45;;;20.40;94.30;;;;;;5073424;28;20453;-74
2021/07/15 12:43:52;;;;;;;18.23;10.20;;;20.30;94.20;;;;;;5073476;28;20072;-73